sensor_id;sensor_type;location;lat;lon;timestamp;P1;durP1;ratioP1;P2;durP2;ratioP2
21733;SDS011;11029;47.820;10.534;2023-03-14T00:01:09;0.52;;;0.40;;
21733;SDS011;11029;47.820;10.534;2023-03-14T00:03:40;2.63;;;1.63;;
21733;SDS011;11029;47.820;10.534;2023-03-14T00:06:08;9.27;;;3.63;;
21733;SDS011;11029;47.820;10.534;2023-03-14T00:08:35;3.08;;;1.80;;
21733;SDS011;11029;47.820;10.534;2023-03-14T00:11:09;0.93;;;0.70;;
21733;SDS011;11029;47.820;10.534;2023-03-14T00:13:37;5.57;;;2.38;;
21733;SDS011;11029;47.820;10.534;2023-03-14T00:16:05;3.53;;;1.08;;
21733;SDS011;11029;47.820;10.534;2023-03-14T00:18:34;2.33;;;0.73;;
21733;SDS011;11029;47.820;10.534;2023-03-14T00:21:01;3.05;;;1.10;;
21733;SDS011;11029;47.820;10.534;2023-03-14T00:23:29;0.45;;;0.45;;
21733;SDS011;11029;47.820;10.534;2023-03-14T00:25:58;0.35;;;0.32;;
21733;SDS011;11029;47.820;10.534;2023-03-14T00:28:29;0.30;;;0.30;;
21733;SDS011;11029;47.820;10.534;2023-03-14T00:30:56;1.23;;;0.32;;
21733;SDS011;11029;47.820;10.534;2023-03-14T00:33:23;0.50;;;0.50;;
21733;SDS011;11029;47.820;10.534;2023-03-14T00:35:53;1.13;;;0.50;;
21733;SDS011;11029;47.820;10.534;2023-03-14T00:38:21;0.65;;;0.60;;
21733;SDS011;11029;47.820;10.534;2023-03-14T00:40:53;0.63;;;0.60;;
21733;SDS011;11029;47.820;10.534;2023-03-14T00:43:20;1.02;;;0.70;;
21733;SDS011;11029;47.820;10.534;2023-03-14T00:45:48;2.25;;;0.80;;
21733;SDS011;11029;47.820;10.534;2023-03-14T00:48:18;1.20;;;0.70;;
21733;SDS011;11029;47.820;10.534;2023-03-14T00:50:45;0.60;;;0.60;;
21733;SDS011;11029;47.820;10.534;2023-03-14T00:53:14;0.63;;;0.50;;
21733;SDS011;11029;47.820;10.534;2023-03-14T00:55:42;1.85;;;0.40;;
21733;SDS011;11029;47.820;10.534;2023-03-14T00:58:10;0.88;;;0.30;;
21733;SDS011;11029;47.820;10.534;2023-03-14T01:00:38;0.30;;;0.30;;
21733;SDS011;11029;47.820;10.534;2023-03-14T01:03:06;0.28;;;0.28;;
21733;SDS011;11029;47.820;10.534;2023-03-14T01:05:33;0.82;;;0.20;;
21733;SDS011;11029;47.820;10.534;2023-03-14T01:08:00;0.30;;;0.30;;
21733;SDS011;11029;47.820;10.534;2023-03-14T01:10:28;0.28;;;0.20;;
21733;SDS011;11029;47.820;10.534;2023-03-14T01:12:56;0.30;;;0.25;;
21733;SDS011;11029;47.820;10.534;2023-03-14T01:15:23;0.45;;;0.20;;
21733;SDS011;11029;47.820;10.534;2023-03-14T01:17:50;0.20;;;0.20;;
21733;SDS011;11029;47.820;10.534;2023-03-14T01:20:17;0.70;;;0.20;;
21733;SDS011;11029;47.820;10.534;2023-03-14T01:22:45;0.10;;;0.10;;
21733;SDS011;11029;47.820;10.534;2023-03-14T01:25:13;0.20;;;0.20;;
21733;SDS011;11029;47.820;10.534;2023-03-14T01:27:41;0.10;;;0.10;;
21733;SDS011;11029;47.820;10.534;2023-03-14T01:30:09;0.75;;;0.20;;
21733;SDS011;11029;47.820;10.534;2023-03-14T01:32:37;0.10;;;0.10;;
21733;SDS011;11029;47.820;10.534;2023-03-14T01:35:05;0.20;;;0.20;;
21733;SDS011;11029;47.820;10.534;2023-03-14T01:37:33;0.10;;;0.10;;
21733;SDS011;11029;47.820;10.534;2023-03-14T01:40:00;1.08;;;0.43;;
21733;SDS011;11029;47.820;10.534;2023-03-14T01:42:27;0.38;;;0.13;;
21733;SDS011;11029;47.820;10.534;2023-03-14T01:44:55;0.20;;;0.20;;
21733;SDS011;11029;47.820;10.534;2023-03-14T01:47:27;0.20;;;0.20;;
21733;SDS011;11029;47.820;10.534;2023-03-14T01:50:05;0.10;;;0.10;;
21733;SDS011;11029;47.820;10.534;2023-03-14T01:52:38;0.13;;;0.13;;
21733;SDS011;11029;47.820;10.534;2023-03-14T01:55:17;0.10;;;0.10;;
21733;SDS011;11029;47.820;10.534;2023-03-14T01:57:49;0.10;;;0.10;;
21733;SDS011;11029;47.820;10.534;2023-03-14T02:00:20;0.10;;;0.10;;
21733;SDS011;11029;47.820;10.534;2023-03-14T02:02:50;0.10;;;0.10;;
21733;SDS011;11029;47.820;10.534;2023-03-14T02:05:34;0.10;;;0.10;;
21733;SDS011;11029;47.820;10.534;2023-03-14T02:08:18;0.10;;;0.10;;
21733;SDS011;11029;47.820;10.534;2023-03-14T02:10:50;0.57;;;0.10;;
21733;SDS011;11029;47.820;10.534;2023-03-14T02:13:28;0.10;;;0.10;;
21733;SDS011;11029;47.820;10.534;2023-03-14T02:19:26;0.10;;;0.10;;
21733;SDS011;11029;47.820;10.534;2023-03-14T02:22:53;0.10;;;0.10;;
21733;SDS011;11029;47.820;10.534;2023-03-14T02:28:12;0.10;;;0.10;;
21733;SDS011;11029;47.820;10.534;2023-03-14T02:30:40;0.08;;;0.08;;
21733;SDS011;11029;47.820;10.534;2023-03-14T02:33:08;0.10;;;0.10;;
21733;SDS011;11029;47.820;10.534;2023-03-14T02:36:02;0.00;;;0.00;;
21733;SDS011;11029;47.820;10.534;2023-03-14T02:38:34;0.47;;;0.10;;
21733;SDS011;11029;47.820;10.534;2023-03-14T02:41:24;0.10;;;0.10;;
21733;SDS011;11029;47.820;10.534;2023-03-14T02:43:58;0.10;;;0.10;;
21733;SDS011;11029;47.820;10.534;2023-03-14T02:46:26;0.77;;;0.10;;
21733;SDS011;11029;47.820;10.534;2023-03-14T02:51:40;0.10;;;0.10;;
21733;SDS011;11029;47.820;10.534;2023-03-14T02:54:09;0.10;;;0.10;;
21733;SDS011;11029;47.820;10.534;2023-03-14T02:56:37;0.10;;;0.10;;
21733;SDS011;11029;47.820;10.534;2023-03-14T02:59:04;0.10;;;0.10;;
21733;SDS011;11029;47.820;10.534;2023-03-14T03:01:44;0.10;;;0.10;;
21733;SDS011;11029;47.820;10.534;2023-03-14T03:04:11;0.10;;;0.10;;
21733;SDS011;11029;47.820;10.534;2023-03-14T03:06:38;0.10;;;0.10;;
21733;SDS011;11029;47.820;10.534;2023-03-14T03:09:05;0.63;;;0.10;;
21733;SDS011;11029;47.820;10.534;2023-03-14T03:11:32;0.65;;;0.10;;
21733;SDS011;11029;47.820;10.534;2023-03-14T03:13:59;0.10;;;0.10;;
21733;SDS011;11029;47.820;10.534;2023-03-14T03:16:27;0.10;;;0.10;;
21733;SDS011;11029;47.820;10.534;2023-03-14T03:18:54;0.10;;;0.10;;
21733;SDS011;11029;47.820;10.534;2023-03-14T03:21:21;0.10;;;0.10;;
21733;SDS011;11029;47.820;10.534;2023-03-14T03:23:49;0.10;;;0.10;;
21733;SDS011;11029;47.820;10.534;2023-03-14T03:26:16;0.10;;;0.10;;
21733;SDS011;11029;47.820;10.534;2023-03-14T03:28:43;0.10;;;0.10;;
21733;SDS011;11029;47.820;10.534;2023-03-14T03:31:12;0.10;;;0.10;;
21733;SDS011;11029;47.820;10.534;2023-03-14T03:33:38;0.30;;;0.10;;
21733;SDS011;11029;47.820;10.534;2023-03-14T03:36:06;2.90;;;0.10;;
21733;SDS011;11029;47.820;10.534;2023-03-14T03:38:35;0.10;;;0.10;;
21733;SDS011;11029;47.820;10.534;2023-03-14T03:41:04;1.00;;;0.20;;
21733;SDS011;11029;47.820;10.534;2023-03-14T03:43:32;0.10;;;0.10;;
21733;SDS011;11029;47.820;10.534;2023-03-14T03:46:04;0.10;;;0.10;;
21733;SDS011;11029;47.820;10.534;2023-03-14T03:48:32;0.20;;;0.20;;
21733;SDS011;11029;47.820;10.534;2023-03-14T03:51:03;0.10;;;0.10;;
21733;SDS011;11029;47.820;10.534;2023-03-14T03:53:30;0.10;;;0.10;;
21733;SDS011;11029;47.820;10.534;2023-03-14T03:56:03;1.23;;;0.10;;
21733;SDS011;11029;47.820;10.534;2023-03-14T03:58:32;0.10;;;0.10;;
21733;SDS011;11029;47.820;10.534;2023-03-14T04:00:59;0.10;;;0.10;;
21733;SDS011;11029;47.820;10.534;2023-03-14T04:03:26;0.10;;;0.10;;
21733;SDS011;11029;47.820;10.534;2023-03-14T04:06:01;0.10;;;0.10;;
21733;SDS011;11029;47.820;10.534;2023-03-14T04:08:33;0.10;;;0.10;;
21733;SDS011;11029;47.820;10.534;2023-03-14T04:11:00;0.10;;;0.10;;
21733;SDS011;11029;47.820;10.534;2023-03-14T04:13:51;0.10;;;0.10;;
21733;SDS011;11029;47.820;10.534;2023-03-14T04:16:22;0.10;;;0.10;;
21733;SDS011;11029;47.820;10.534;2023-03-14T04:18:55;0.00;;;0.00;;
21733;SDS011;11029;47.820;10.534;2023-03-14T04:21:22;0.10;;;0.10;;
21733;SDS011;11029;47.820;10.534;2023-03-14T04:23:54;0.10;;;0.10;;
21733;SDS011;11029;47.820;10.534;2023-03-14T04:26:22;0.10;;;0.10;;
21733;SDS011;11029;47.820;10.534;2023-03-14T04:28:49;0.10;;;0.10;;
21733;SDS011;11029;47.820;10.534;2023-03-14T04:31:17;0.10;;;0.10;;
21733;SDS011;11029;47.820;10.534;2023-03-14T04:33:46;0.43;;;0.10;;
21733;SDS011;11029;47.820;10.534;2023-03-14T04:36:15;0.10;;;0.10;;
21733;SDS011;11029;47.820;10.534;2023-03-14T04:38:42;0.10;;;0.10;;
21733;SDS011;11029;47.820;10.534;2023-03-14T04:41:09;0.10;;;0.10;;
21733;SDS011;11029;47.820;10.534;2023-03-14T04:43:36;0.30;;;0.10;;
21733;SDS011;11029;47.820;10.534;2023-03-14T04:48:35;0.10;;;0.10;;
21733;SDS011;11029;47.820;10.534;2023-03-14T04:51:05;1.08;;;0.10;;
21733;SDS011;11029;47.820;10.534;2023-03-14T04:53:33;0.10;;;0.10;;
21733;SDS011;11029;47.820;10.534;2023-03-14T04:56:03;0.10;;;0.10;;
21733;SDS011;11029;47.820;10.534;2023-03-14T04:58:35;0.05;;;0.05;;
21733;SDS011;11029;47.820;10.534;2023-03-14T05:01:04;0.10;;;0.10;;
21733;SDS011;11029;47.820;10.534;2023-03-14T05:03:40;0.10;;;0.10;;
21733;SDS011;11029;47.820;10.534;2023-03-14T05:06:10;0.10;;;0.10;;
21733;SDS011;11029;47.820;10.534;2023-03-14T05:08:47;0.10;;;0.10;;
21733;SDS011;11029;47.820;10.534;2023-03-14T05:11:44;0.13;;;0.10;;
21733;SDS011;11029;47.820;10.534;2023-03-14T05:14:32;0.28;;;0.28;;
21733;SDS011;11029;47.820;10.534;2023-03-14T05:17:01;0.20;;;0.20;;
21733;SDS011;11029;47.820;10.534;2023-03-14T05:19:48;0.20;;;0.20;;
21733;SDS011;11029;47.820;10.534;2023-03-14T05:22:53;0.20;;;0.20;;
21733;SDS011;11029;47.820;10.534;2023-03-14T05:25:39;0.10;;;0.10;;
21733;SDS011;11029;47.820;10.534;2023-03-14T05:28:17;0.10;;;0.10;;
21733;SDS011;11029;47.820;10.534;2023-03-14T05:31:06;0.10;;;0.10;;
21733;SDS011;11029;47.820;10.534;2023-03-14T05:33:47;0.10;;;0.10;;
21733;SDS011;11029;47.820;10.534;2023-03-14T05:36:32;0.20;;;0.20;;
21733;SDS011;11029;47.820;10.534;2023-03-14T05:39:20;0.20;;;0.20;;
21733;SDS011;11029;47.820;10.534;2023-03-14T05:42:19;1.17;;;0.20;;
21733;SDS011;11029;47.820;10.534;2023-03-14T05:44:56;0.10;;;0.10;;
21733;SDS011;11029;47.820;10.534;2023-03-14T05:47:37;0.38;;;0.38;;
21733;SDS011;11029;47.820;10.534;2023-03-14T05:50:15;0.55;;;0.55;;
21733;SDS011;11029;47.820;10.534;2023-03-14T05:52:54;0.50;;;0.50;;
21733;SDS011;11029;47.820;10.534;2023-03-14T05:55:53;1.48;;;0.80;;
21733;SDS011;11029;47.820;10.534;2023-03-14T05:58:40;0.40;;;0.40;;
21733;SDS011;11029;47.820;10.534;2023-03-14T06:01:42;0.68;;;0.68;;
21733;SDS011;11029;47.820;10.534;2023-03-14T06:04:14;1.92;;;1.00;;
21733;SDS011;11029;47.820;10.534;2023-03-14T06:06:43;0.80;;;0.80;;
21733;SDS011;11029;47.820;10.534;2023-03-14T06:09:11;0.30;;;0.30;;
21733;SDS011;11029;47.820;10.534;2023-03-14T06:11:41;0.30;;;0.30;;
21733;SDS011;11029;47.820;10.534;2023-03-14T06:14:07;0.30;;;0.30;;
21733;SDS011;11029;47.820;10.534;2023-03-14T06:16:35;0.40;;;0.30;;
21733;SDS011;11029;47.820;10.534;2023-03-14T06:19:03;0.90;;;0.52;;
21733;SDS011;11029;47.820;10.534;2023-03-14T06:21:29;0.80;;;0.45;;
21733;SDS011;11029;47.820;10.534;2023-03-14T06:23:56;0.40;;;0.40;;
21733;SDS011;11029;47.820;10.534;2023-03-14T06:26:27;1.05;;;0.50;;
21733;SDS011;11029;47.820;10.534;2023-03-14T06:28:54;2.08;;;0.82;;
21733;SDS011;11029;47.820;10.534;2023-03-14T06:31:21;0.98;;;0.90;;
21733;SDS011;11029;47.820;10.534;2023-03-14T06:33:53;2.38;;;1.00;;
21733;SDS011;11029;47.820;10.534;2023-03-14T06:36:22;0.75;;;0.65;;
21733;SDS011;11029;47.820;10.534;2023-03-14T06:38:49;0.68;;;0.60;;
21733;SDS011;11029;47.820;10.534;2023-03-14T06:41:16;1.73;;;0.90;;
21733;SDS011;11029;47.820;10.534;2023-03-14T06:43:46;1.10;;;0.70;;
21733;SDS011;11029;47.820;10.534;2023-03-14T06:46:14;1.00;;;0.80;;
21733;SDS011;11029;47.820;10.534;2023-03-14T06:48:42;0.73;;;0.60;;
21733;SDS011;11029;47.820;10.534;2023-03-14T06:51:10;0.40;;;0.40;;
21733;SDS011;11029;47.820;10.534;2023-03-14T06:53:37;0.50;;;0.50;;
21733;SDS011;11029;47.820;10.534;2023-03-14T06:56:04;0.80;;;0.63;;
21733;SDS011;11029;47.820;10.534;2023-03-14T06:58:32;0.50;;;0.50;;
21733;SDS011;11029;47.820;10.534;2023-03-14T07:01:01;0.73;;;0.55;;
21733;SDS011;11029;47.820;10.534;2023-03-14T07:03:34;0.30;;;0.30;;
21733;SDS011;11029;47.820;10.534;2023-03-14T07:06:03;0.52;;;0.30;;
21733;SDS011;11029;47.820;10.534;2023-03-14T07:08:32;0.50;;;0.50;;
21733;SDS011;11029;47.820;10.534;2023-03-14T07:11:00;2.70;;;1.80;;
21733;SDS011;11029;47.820;10.534;2023-03-14T07:13:27;3.35;;;1.48;;
21733;SDS011;11029;47.820;10.534;2023-03-14T07:18:26;1.73;;;1.27;;
21733;SDS011;11029;47.820;10.534;2023-03-14T07:20:54;2.10;;;1.25;;
21733;SDS011;11029;47.820;10.534;2023-03-14T07:23:21;3.05;;;1.70;;
21733;SDS011;11029;47.820;10.534;2023-03-14T07:25:50;2.53;;;1.20;;
21733;SDS011;11029;47.820;10.534;2023-03-14T07:28:21;2.10;;;1.40;;
21733;SDS011;11029;47.820;10.534;2023-03-14T07:30:55;2.10;;;1.65;;
21733;SDS011;11029;47.820;10.534;2023-03-14T07:33:27;1.50;;;0.80;;
21733;SDS011;11029;47.820;10.534;2023-03-14T07:35:54;0.52;;;0.50;;
21733;SDS011;11029;47.820;10.534;2023-03-14T07:38:21;0.68;;;0.40;;
21733;SDS011;11029;47.820;10.534;2023-03-14T07:41:17;0.38;;;0.38;;
21733;SDS011;11029;47.820;10.534;2023-03-14T07:44:04;0.60;;;0.40;;
21733;SDS011;11029;47.820;10.534;2023-03-14T07:46:31;0.63;;;0.28;;
21733;SDS011;11029;47.820;10.534;2023-03-14T07:48:58;0.15;;;0.15;;
21733;SDS011;11029;47.820;10.534;2023-03-14T07:51:24;0.20;;;0.20;;
21733;SDS011;11029;47.820;10.534;2023-03-14T07:53:51;0.95;;;0.30;;
21733;SDS011;11029;47.820;10.534;2023-03-14T07:56:18;0.60;;;0.28;;
21733;SDS011;11029;47.820;10.534;2023-03-14T07:58:44;0.40;;;0.30;;
21733;SDS011;11029;47.820;10.534;2023-03-14T08:01:11;0.50;;;0.50;;
21733;SDS011;11029;47.820;10.534;2023-03-14T08:03:38;0.40;;;0.40;;
21733;SDS011;11029;47.820;10.534;2023-03-14T08:06:05;1.23;;;0.82;;
21733;SDS011;11029;47.820;10.534;2023-03-14T08:08:32;1.55;;;1.10;;
21733;SDS011;11029;47.820;10.534;2023-03-14T08:11:02;0.70;;;0.50;;
21733;SDS011;11029;47.820;10.534;2023-03-14T08:13:35;0.38;;;0.32;;
21733;SDS011;11029;47.820;10.534;2023-03-14T08:16:02;0.40;;;0.40;;
21733;SDS011;11029;47.820;10.534;2023-03-14T08:18:30;0.38;;;0.38;;
21733;SDS011;11029;47.820;10.534;2023-03-14T08:20:57;0.40;;;0.30;;
21733;SDS011;11029;47.820;10.534;2023-03-14T08:23:24;0.35;;;0.20;;
21733;SDS011;11029;47.820;10.534;2023-03-14T08:25:51;0.17;;;0.17;;
21733;SDS011;11029;47.820;10.534;2023-03-14T08:28:18;0.20;;;0.17;;
21733;SDS011;11029;47.820;10.534;2023-03-14T08:30:45;0.75;;;0.30;;
21733;SDS011;11029;47.820;10.534;2023-03-14T08:33:13;1.13;;;0.20;;
21733;SDS011;11029;47.820;10.534;2023-03-14T08:35:39;0.20;;;0.20;;
21733;SDS011;11029;47.820;10.534;2023-03-14T08:38:06;1.13;;;0.30;;
21733;SDS011;11029;47.820;10.534;2023-03-14T08:40:33;0.25;;;0.25;;
21733;SDS011;11029;47.820;10.534;2023-03-14T08:43:00;1.55;;;0.35;;
21733;SDS011;11029;47.820;10.534;2023-03-14T08:45:27;1.13;;;0.30;;
21733;SDS011;11029;47.820;10.534;2023-03-14T08:47:53;0.93;;;0.30;;
21733;SDS011;11029;47.820;10.534;2023-03-14T08:50:20;0.25;;;0.25;;
21733;SDS011;11029;47.820;10.534;2023-03-14T08:52:49;0.20;;;0.20;;
21733;SDS011;11029;47.820;10.534;2023-03-14T08:55:16;0.63;;;0.20;;
21733;SDS011;11029;47.820;10.534;2023-03-14T08:57:43;0.20;;;0.20;;
21733;SDS011;11029;47.820;10.534;2023-03-14T09:00:09;0.13;;;0.13;;
21733;SDS011;11029;47.820;10.534;2023-03-14T09:02:40;1.25;;;0.20;;
21733;SDS011;11029;47.820;10.534;2023-03-14T09:05:09;0.22;;;0.20;;
21733;SDS011;11029;47.820;10.534;2023-03-14T09:07:36;3.30;;;1.08;;
21733;SDS011;11029;47.820;10.534;2023-03-14T09:10:04;0.77;;;0.20;;
21733;SDS011;11029;47.820;10.534;2023-03-14T09:12:32;0.40;;;0.13;;
21733;SDS011;11029;47.820;10.534;2023-03-14T09:14:59;0.28;;;0.20;;
21733;SDS011;11029;47.820;10.534;2023-03-14T09:17:25;1.80;;;0.30;;
21733;SDS011;11029;47.820;10.534;2023-03-14T09:19:52;1.40;;;0.30;;
21733;SDS011;11029;47.820;10.534;2023-03-14T09:22:19;0.55;;;0.30;;
21733;SDS011;11029;47.820;10.534;2023-03-14T09:24:46;1.38;;;0.20;;
21733;SDS011;11029;47.820;10.534;2023-03-14T09:27:14;0.77;;;0.45;;
21733;SDS011;11029;47.820;10.534;2023-03-14T09:29:41;0.30;;;0.30;;
21733;SDS011;11029;47.820;10.534;2023-03-14T09:32:08;0.50;;;0.30;;
21733;SDS011;11029;47.820;10.534;2023-03-14T09:34:34;3.22;;;0.40;;
21733;SDS011;11029;47.820;10.534;2023-03-14T09:37:02;0.50;;;0.50;;
21733;SDS011;11029;47.820;10.534;2023-03-14T09:39:29;0.32;;;0.30;;
21733;SDS011;11029;47.820;10.534;2023-03-14T09:41:56;0.25;;;0.20;;
21733;SDS011;11029;47.820;10.534;2023-03-14T09:44:27;0.10;;;0.10;;
21733;SDS011;11029;47.820;10.534;2023-03-14T09:46:58;0.60;;;0.13;;
21733;SDS011;11029;47.820;10.534;2023-03-14T09:49:31;0.85;;;0.13;;
21733;SDS011;11029;47.820;10.534;2023-03-14T09:52:31;0.10;;;0.10;;
21733;SDS011;11029;47.820;10.534;2023-03-14T09:55:05;0.20;;;0.10;;
21733;SDS011;11029;47.820;10.534;2023-03-14T09:57:36;0.10;;;0.10;;
21733;SDS011;11029;47.820;10.534;2023-03-14T10:00:10;0.20;;;0.20;;
21733;SDS011;11029;47.820;10.534;2023-03-14T10:02:52;0.35;;;0.20;;
21733;SDS011;11029;47.820;10.534;2023-03-14T10:05:22;0.30;;;0.20;;
21733;SDS011;11029;47.820;10.534;2023-03-14T10:07:51;0.22;;;0.20;;
21733;SDS011;11029;47.820;10.534;2023-03-14T10:10:24;0.20;;;0.20;;
21733;SDS011;11029;47.820;10.534;2023-03-14T10:15:27;0.30;;;0.20;;
21733;SDS011;11029;47.820;10.534;2023-03-14T10:17:58;0.10;;;0.10;;
21733;SDS011;11029;47.820;10.534;2023-03-14T10:23:05;1.27;;;0.52;;
21733;SDS011;11029;47.820;10.534;2023-03-14T10:25:40;1.65;;;0.82;;
21733;SDS011;11029;47.820;10.534;2023-03-14T10:28:43;1.10;;;0.40;;
21733;SDS011;11029;47.820;10.534;2023-03-14T10:31:10;0.28;;;0.28;;
21733;SDS011;11029;47.820;10.534;2023-03-14T10:33:37;0.20;;;0.20;;
21733;SDS011;11029;47.820;10.534;2023-03-14T10:38:43;1.35;;;0.10;;
21733;SDS011;11029;47.820;10.534;2023-03-14T10:41:15;0.10;;;0.10;;
21733;SDS011;11029;47.820;10.534;2023-03-14T10:43:50;0.20;;;0.15;;
21733;SDS011;11029;47.820;10.534;2023-03-14T10:46:19;0.10;;;0.10;;
21733;SDS011;11029;47.820;10.534;2023-03-14T10:49:05;0.30;;;0.20;;
21733;SDS011;11029;47.820;10.534;2023-03-14T10:51:33;1.10;;;0.30;;
21733;SDS011;11029;47.820;10.534;2023-03-14T10:56:36;0.10;;;0.10;;
21733;SDS011;11029;47.820;10.534;2023-03-14T10:59:06;0.30;;;0.30;;
21733;SDS011;11029;47.820;10.534;2023-03-14T11:08:35;1.60;;;0.30;;
21733;SDS011;11029;47.820;10.534;2023-03-14T11:11:22;0.20;;;0.20;;
21733;SDS011;11029;47.820;10.534;2023-03-14T11:17:11;0.30;;;0.30;;
21733;SDS011;11029;47.820;10.534;2023-03-14T11:25:05;0.20;;;0.20;;
21733;SDS011;11029;47.820;10.534;2023-03-14T11:27:45;0.20;;;0.20;;
21733;SDS011;11029;47.820;10.534;2023-03-14T11:40:31;0.20;;;0.20;;
21733;SDS011;11029;47.820;10.534;2023-03-14T11:43:04;0.30;;;0.30;;
21733;SDS011;11029;47.820;10.534;2023-03-14T11:45:46;0.20;;;0.20;;
21733;SDS011;11029;47.820;10.534;2023-03-14T11:50:57;0.88;;;0.20;;
21733;SDS011;11029;47.820;10.534;2023-03-14T11:56:27;0.20;;;0.20;;
21733;SDS011;11029;47.820;10.534;2023-03-14T11:59:30;0.82;;;0.28;;
21733;SDS011;11029;47.820;10.534;2023-03-14T12:02:33;0.38;;;0.38;;
21733;SDS011;11029;47.820;10.534;2023-03-14T12:10:37;0.20;;;0.20;;
21733;SDS011;11029;47.820;10.534;2023-03-14T12:13:09;1.00;;;0.20;;
21733;SDS011;11029;47.820;10.534;2023-03-14T12:15:38;0.20;;;0.20;;
21733;SDS011;11029;47.820;10.534;2023-03-14T12:18:18;0.20;;;0.20;;
21733;SDS011;11029;47.820;10.534;2023-03-14T12:20:51;0.35;;;0.20;;
21733;SDS011;11029;47.820;10.534;2023-03-14T12:23:21;0.20;;;0.20;;
21733;SDS011;11029;47.820;10.534;2023-03-14T12:25:49;0.10;;;0.10;;
21733;SDS011;11029;47.820;10.534;2023-03-14T12:29:24;1.05;;;0.95;;
21733;SDS011;11029;47.820;10.534;2023-03-14T12:39:37;0.32;;;0.32;;
21733;SDS011;11029;47.820;10.534;2023-03-14T12:49:44;0.35;;;0.20;;
21733;SDS011;11029;47.820;10.534;2023-03-14T12:52:22;0.20;;;0.20;;
21733;SDS011;11029;47.820;10.534;2023-03-14T12:55:10;1.25;;;0.30;;
21733;SDS011;11029;47.820;10.534;2023-03-14T12:57:48;0.35;;;0.20;;
21733;SDS011;11029;47.820;10.534;2023-03-14T13:00:32;1.05;;;0.43;;
21733;SDS011;11029;47.820;10.534;2023-03-14T13:03:18;4.63;;;0.70;;
21733;SDS011;11029;47.820;10.534;2023-03-14T13:05:55;2.15;;;0.52;;
21733;SDS011;11029;47.820;10.534;2023-03-14T13:08:38;0.40;;;0.40;;
21733;SDS011;11029;47.820;10.534;2023-03-14T13:11:10;0.40;;;0.20;;
21733;SDS011;11029;47.820;10.534;2023-03-14T13:13:42;0.20;;;0.20;;
21733;SDS011;11029;47.820;10.534;2023-03-14T13:16:16;0.10;;;0.10;;
21733;SDS011;11029;47.820;10.534;2023-03-14T13:18:47;0.20;;;0.20;;
21733;SDS011;11029;47.820;10.534;2023-03-14T13:23:54;0.30;;;0.20;;
21733;SDS011;11029;47.820;10.534;2023-03-14T13:31:25;0.20;;;0.20;;
21733;SDS011;11029;47.820;10.534;2023-03-14T13:33:59;0.10;;;0.10;;
21733;SDS011;11029;47.820;10.534;2023-03-14T13:36:26;0.10;;;0.10;;
21733;SDS011;11029;47.820;10.534;2023-03-14T13:38:57;0.10;;;0.10;;
21733;SDS011;11029;47.820;10.534;2023-03-14T13:41:25;0.10;;;0.10;;
21733;SDS011;11029;47.820;10.534;2023-03-14T13:43:56;0.20;;;0.10;;
21733;SDS011;11029;47.820;10.534;2023-03-14T13:46:29;0.10;;;0.10;;
21733;SDS011;11029;47.820;10.534;2023-03-14T13:49:00;0.20;;;0.20;;
21733;SDS011;11029;47.820;10.534;2023-03-14T13:51:29;0.50;;;0.32;;
21733;SDS011;11029;47.820;10.534;2023-03-14T13:53:59;0.10;;;0.10;;
21733;SDS011;11029;47.820;10.534;2023-03-14T13:56:27;0.10;;;0.10;;
21733;SDS011;11029;47.820;10.534;2023-03-14T13:58:55;0.38;;;0.38;;
21733;SDS011;11029;47.820;10.534;2023-03-14T14:01:30;0.10;;;0.10;;
21733;SDS011;11029;47.820;10.534;2023-03-14T14:04:05;0.10;;;0.10;;
21733;SDS011;11029;47.820;10.534;2023-03-14T14:06:35;0.38;;;0.10;;
21733;SDS011;11029;47.820;10.534;2023-03-14T14:09:11;0.40;;;0.40;;
21733;SDS011;11029;47.820;10.534;2023-03-14T14:11:47;0.20;;;0.20;;
21733;SDS011;11029;47.820;10.534;2023-03-14T14:14:43;0.13;;;0.13;;
21733;SDS011;11029;47.820;10.534;2023-03-14T14:17:30;0.45;;;0.30;;
21733;SDS011;11029;47.820;10.534;2023-03-14T14:20:01;0.20;;;0.20;;
21733;SDS011;11029;47.820;10.534;2023-03-14T14:22:31;0.30;;;0.28;;
21733;SDS011;11029;47.820;10.534;2023-03-14T14:24:59;1.00;;;0.20;;
21733;SDS011;11029;47.820;10.534;2023-03-14T14:27:28;0.35;;;0.28;;
21733;SDS011;11029;47.820;10.534;2023-03-14T14:32:46;0.35;;;0.30;;
21733;SDS011;11029;47.820;10.534;2023-03-14T14:35:34;0.32;;;0.32;;
21733;SDS011;11029;47.820;10.534;2023-03-14T14:38:02;0.70;;;0.40;;
21733;SDS011;11029;47.820;10.534;2023-03-14T14:40:43;2.25;;;1.48;;
21733;SDS011;11029;47.820;10.534;2023-03-14T14:43:12;0.40;;;0.30;;
21733;SDS011;11029;47.820;10.534;2023-03-14T14:45:45;1.63;;;0.70;;
21733;SDS011;11029;47.820;10.534;2023-03-14T14:50:33;1.02;;;0.77;;
21733;SDS011;11029;47.820;10.534;2023-03-14T14:53:13;1.60;;;0.88;;
21733;SDS011;11029;47.820;10.534;2023-03-14T14:55:51;0.52;;;0.50;;
21733;SDS011;11029;47.820;10.534;2023-03-14T14:58:27;0.40;;;0.35;;
21733;SDS011;11029;47.820;10.534;2023-03-14T15:03:27;0.40;;;0.40;;
21733;SDS011;11029;47.820;10.534;2023-03-14T15:05:56;0.90;;;0.60;;
21733;SDS011;11029;47.820;10.534;2023-03-14T15:08:24;1.05;;;0.50;;
21733;SDS011;11029;47.820;10.534;2023-03-14T15:10:52;0.98;;;0.50;;
21733;SDS011;11029;47.820;10.534;2023-03-14T15:13:18;0.50;;;0.50;;
21733;SDS011;11029;47.820;10.534;2023-03-14T15:15:45;0.82;;;0.55;;
21733;SDS011;11029;47.820;10.534;2023-03-14T15:18:14;1.30;;;0.50;;
21733;SDS011;11029;47.820;10.534;2023-03-14T15:20:43;1.35;;;0.47;;
21733;SDS011;11029;47.820;10.534;2023-03-14T15:23:15;0.47;;;0.47;;
21733;SDS011;11029;47.820;10.534;2023-03-14T15:25:43;0.95;;;0.40;;
21733;SDS011;11029;47.820;10.534;2023-03-14T15:28:22;0.77;;;0.60;;
21733;SDS011;11029;47.820;10.534;2023-03-14T15:30:52;0.73;;;0.50;;
21733;SDS011;11029;47.820;10.534;2023-03-14T15:33:20;1.10;;;0.60;;
21733;SDS011;11029;47.820;10.534;2023-03-14T15:35:48;0.75;;;0.75;;
21733;SDS011;11029;47.820;10.534;2023-03-14T15:38:16;0.60;;;0.40;;
21733;SDS011;11029;47.820;10.534;2023-03-14T15:40:47;1.05;;;0.60;;
21733;SDS011;11029;47.820;10.534;2023-03-14T15:43:14;0.80;;;0.55;;
21733;SDS011;11029;47.820;10.534;2023-03-14T15:45:41;2.60;;;0.50;;
21733;SDS011;11029;47.820;10.534;2023-03-14T15:48:15;1.02;;;0.60;;
21733;SDS011;11029;47.820;10.534;2023-03-14T15:50:43;3.30;;;1.05;;
21733;SDS011;11029;47.820;10.534;2023-03-14T15:53:10;0.60;;;0.60;;
21733;SDS011;11029;47.820;10.534;2023-03-14T15:55:37;1.55;;;0.93;;
21733;SDS011;11029;47.820;10.534;2023-03-14T15:58:04;2.38;;;0.70;;
21733;SDS011;11029;47.820;10.534;2023-03-14T16:00:31;1.50;;;0.50;;
21733;SDS011;11029;47.820;10.534;2023-03-14T16:02:58;0.65;;;0.60;;
21733;SDS011;11029;47.820;10.534;2023-03-14T16:05:25;1.60;;;1.10;;
21733;SDS011;11029;47.820;10.534;2023-03-14T16:07:51;1.20;;;0.70;;
21733;SDS011;11029;47.820;10.534;2023-03-14T16:10:18;0.85;;;0.60;;
21733;SDS011;11029;47.820;10.534;2023-03-14T16:12:45;1.10;;;0.50;;
21733;SDS011;11029;47.820;10.534;2023-03-14T16:15:12;0.60;;;0.60;;
21733;SDS011;11029;47.820;10.534;2023-03-14T16:17:38;0.98;;;0.70;;
21733;SDS011;11029;47.820;10.534;2023-03-14T16:20:08;1.60;;;0.60;;
21733;SDS011;11029;47.820;10.534;2023-03-14T16:22:36;1.02;;;0.60;;
21733;SDS011;11029;47.820;10.534;2023-03-14T16:25:04;2.45;;;1.15;;
21733;SDS011;11029;47.820;10.534;2023-03-14T16:27:31;2.50;;;0.60;;
21733;SDS011;11029;47.820;10.534;2023-03-14T16:29:58;0.60;;;0.60;;
21733;SDS011;11029;47.820;10.534;2023-03-14T16:32:26;2.85;;;1.20;;